createdAt,value
2018-11-23T00:02:26.089Z,74.93
2018-11-23T00:05:00.104Z,67.77
2018-11-23T00:07:33.717Z,64.00
2018-11-23T00:10:05.347Z,71.13
2018-11-23T00:12:36.724Z,76.73
2018-11-23T00:15:12.879Z,71.70
2018-11-23T00:17:45.464Z,74.17
2018-11-23T00:20:18.992Z,71.13
2018-11-23T00:22:50.329Z,70.97
2018-11-23T00:25:24.268Z,68.87
2018-11-23T00:27:57.940Z,64.60
2018-11-23T00:30:30.518Z,74.63
2018-11-23T00:33:03.220Z,62.60
2018-11-23T00:35:34.522Z,71.47
2018-11-23T00:38:07.969Z,64.70
2018-11-23T00:40:39.231Z,67.60
2018-11-23T00:43:11.687Z,71.60
2018-11-23T00:45:44.509Z,69.90
2018-11-23T00:48:17.017Z,69.83
2018-11-23T00:50:49.878Z,73.63
2018-11-23T00:53:21.196Z,72.73
2018-11-23T00:55:54.409Z,67.33
2018-11-23T00:58:29.351Z,71.67
2018-11-23T01:01:00.871Z,67.30
2018-11-23T01:03:32.183Z,70.93
2018-11-23T01:06:04.914Z,67.13
2018-11-23T01:08:38.587Z,74.43
2018-11-23T01:11:11.554Z,73.97
2018-11-23T01:13:46.502Z,65.13
2018-11-23T01:16:20.694Z,58.50
2018-11-23T01:18:51.947Z,63.90
2018-11-23T01:21:25.075Z,63.30
2018-11-23T01:23:56.559Z,56.60
2018-11-23T01:26:35.426Z,63.27
2018-11-23T01:29:07.606Z,56.43
2018-11-23T01:31:40.376Z,63.70
2018-11-23T01:34:13.219Z,59.30
2018-11-23T01:36:44.559Z,63.63
2018-11-23T01:39:15.864Z,62.10
2018-11-23T01:41:48.939Z,53.43
2018-11-23T01:44:20.200Z,66.20
2018-11-23T01:46:51.511Z,66.60
2018-11-23T01:49:25.103Z,54.93
2018-11-23T01:51:57.818Z,69.63
2018-11-23T01:54:29.051Z,70.20
2018-11-23T01:57:02.303Z,64.93
2018-11-23T01:59:33.535Z,69.33
2018-11-23T02:02:07.905Z,66.80
2018-11-23T02:04:41.109Z,65.93
2018-11-23T02:07:12.922Z,61.37
2018-11-23T02:09:45.985Z,61.73
2018-11-23T02:12:19.604Z,65.17
2018-11-23T02:14:55.220Z,60.53
2018-11-23T02:17:26.413Z,64.03
2018-11-23T02:19:59.132Z,64.50
2018-11-23T02:22:33.663Z,62.23
2018-11-23T02:25:04.941Z,60.60
2018-11-23T02:27:39.386Z,58.30
2018-11-23T02:30:14.312Z,63.37
2018-11-23T02:32:47.548Z,60.07
2018-11-23T02:35:21.336Z,63.13
2018-11-23T02:37:55.252Z,59.50
2018-11-23T02:40:26.885Z,59.93
2018-11-23T02:43:00.061Z,57.47
2018-11-23T02:45:31.399Z,62.00
2018-11-23T02:48:05.074Z,62.20
2018-11-23T02:50:36.729Z,65.13
2018-11-23T02:53:09.975Z,56.23
2018-11-23T02:55:44.129Z,54.13
2018-11-23T02:58:16.475Z,58.50
2018-11-23T03:00:49.285Z,60.20
2018-11-23T03:03:22.134Z,58.27
2018-11-23T03:05:54.637Z,57.33
2018-11-23T03:08:28.251Z,58.83
2018-11-23T03:11:01.947Z,56.17
2018-11-23T03:13:34.607Z,59.57
2018-11-23T03:16:07.456Z,55.67
2018-11-23T03:18:40.629Z,58.63
2018-11-23T03:21:13.964Z,62.10
2018-11-23T03:23:46.343Z,58.37
2018-11-23T03:26:20.012Z,50.20
2018-11-23T03:28:51.432Z,62.00
2018-11-23T03:31:26.269Z,51.93
2018-11-23T03:33:59.635Z,56.37
2018-11-23T03:36:31.026Z,49.33
2018-11-23T03:39:03.672Z,53.77
2018-11-23T03:41:37.404Z,54.10
2018-11-23T03:44:09.725Z,55.07
2018-11-23T03:46:44.056Z,58.43
2018-11-23T03:49:17.025Z,57.57
2018-11-23T03:51:51.076Z,52.70
2018-11-23T03:54:23.740Z,58.63
2018-11-23T03:56:56.479Z,58.33
2018-11-23T03:59:29.464Z,55.60
2018-11-23T04:02:02.500Z,57.60
2018-11-23T04:04:33.882Z,59.20
2018-11-23T04:07:05.151Z,49.67
2018-11-23T04:09:39.702Z,50.83
2018-11-23T04:12:14.349Z,54.13
2018-11-23T04:14:45.582Z,53.97
2018-11-23T04:17:17.014Z,51.40
2018-11-23T04:19:49.758Z,51.57
2018-11-23T04:22:21.243Z,52.23
2018-11-23T04:24:54.500Z,50.50
2018-11-23T04:27:27.740Z,53.17
2018-11-23T04:30:03.015Z,59.03
2018-11-23T04:32:36.718Z,54.50
2018-11-23T04:35:12.804Z,56.97
2018-11-23T04:37:46.093Z,59.57
2018-11-23T04:40:18.682Z,54.63
2018-11-23T04:42:52.419Z,58.20
2018-11-23T04:45:24.383Z,58.53
2018-11-23T04:47:56.889Z,57.60
2018-11-23T04:50:28.806Z,54.07
2018-11-23T04:53:01.327Z,61.30
2018-11-23T04:55:32.696Z,60.97
2018-11-23T04:58:06.034Z,58.47
2018-11-23T05:00:40.100Z,58.10
2018-11-23T05:03:13.131Z,55.40
2018-11-23T05:05:46.992Z,50.83
2018-11-23T05:08:19.751Z,53.70
2018-11-23T05:10:53.080Z,52.77
2018-11-23T05:13:25.749Z,52.33
2018-11-23T05:15:58.700Z,53.63
2018-11-23T05:18:30.070Z,54.17
2018-11-23T05:21:01.479Z,52.73
2018-11-23T05:23:34.929Z,52.37
2018-11-23T05:26:08.380Z,53.33
2018-11-23T05:28:42.757Z,54.30
2018-11-23T05:31:15.607Z,49.37
2018-11-23T05:33:47.085Z,49.67
2018-11-23T05:36:20.027Z,50.37
2018-11-23T05:38:52.987Z,50.37
2018-11-23T05:41:24.530Z,52.40
2018-11-23T05:43:56.374Z,49.43
2018-11-23T05:46:29.523Z,51.00
2018-11-23T05:49:02.614Z,53.27
2018-11-23T05:51:35.301Z,48.93
2018-11-23T05:54:07.627Z,48.30
2018-11-23T05:56:39.076Z,48.83
2018-11-23T05:59:10.539Z,46.80
2018-11-23T06:01:43.428Z,56.57
2018-11-23T06:04:14.802Z,53.57
2018-11-23T06:06:46.357Z,49.93
2018-11-23T06:09:20.574Z,48.03
2018-11-23T06:11:52.094Z,51.43
2018-11-23T06:14:25.249Z,51.73
2018-11-23T06:16:56.798Z,54.43
2018-11-23T06:19:29.659Z,58.97
2018-11-23T06:22:02.811Z,54.33
2018-11-23T06:24:36.031Z,54.43
2018-11-23T06:27:08.004Z,52.47
2018-11-23T06:29:41.637Z,49.23
2018-11-23T06:32:49.703Z,52.30
2018-11-23T06:35:23.338Z,52.17
2018-11-23T06:37:56.206Z,57.83
2018-11-23T06:40:27.888Z,54.67
2018-11-23T06:43:02.507Z,60.50
2018-11-23T06:45:37.495Z,57.90
2018-11-23T06:48:11.422Z,58.27
2018-11-23T06:50:44.792Z,60.20
2018-11-23T06:53:17.544Z,55.97
2018-11-23T06:55:50.646Z,59.70
2018-11-23T06:58:21.943Z,62.47
2018-11-23T07:00:56.298Z,57.30
2018-11-23T07:03:30.032Z,58.33
2018-11-23T07:06:03.416Z,56.00
2018-11-23T07:08:37.352Z,55.73
2018-11-23T07:11:10.990Z,56.93
2018-11-23T07:13:46.127Z,61.93
2018-11-23T07:16:17.585Z,54.10
2018-11-23T07:18:50.961Z,70.53
2018-11-23T07:21:24.165Z,65.00
2018-11-23T07:23:58.019Z,64.27
2018-11-23T07:26:29.901Z,60.50
2018-11-23T07:29:03.503Z,63.57
2018-11-23T07:31:34.896Z,56.13
2018-11-23T07:34:06.448Z,62.50
2018-11-23T07:36:40.302Z,56.60
2018-11-23T07:39:48.745Z,57.70
2018-11-23T07:42:24.735Z,64.13
2018-11-23T07:44:57.600Z,61.63
2018-11-23T07:47:31.351Z,65.10
2018-11-23T07:50:02.655Z,56.97
2018-11-23T07:52:36.739Z,56.23
2018-11-23T07:55:09.375Z,59.73
2018-11-23T07:57:41.921Z,58.83
2018-11-23T08:00:21.399Z,50.83
2018-11-23T08:02:54.559Z,55.17
2018-11-23T08:05:27.971Z,52.30
2018-11-23T08:07:59.315Z,51.37
2018-11-23T08:10:30.028Z,52.70
2018-11-23T08:13:02.786Z,45.63
2018-11-23T08:15:35.045Z,49.47
2018-11-23T08:18:08.073Z,48.93
2018-11-23T08:20:39.553Z,40.17
2018-11-23T08:23:11.005Z,39.97
2018-11-23T08:25:44.351Z,41.40
2018-11-23T08:28:17.465Z,47.03
2018-11-23T08:30:49.260Z,37.80
2018-11-23T08:33:23.259Z,40.47
2018-11-23T08:35:57.725Z,44.10
2018-11-23T08:38:29.836Z,50.03
2018-11-23T08:41:01.221Z,44.70
2018-11-23T08:43:34.131Z,46.77
2018-11-23T08:46:07.582Z,43.17
2018-11-23T08:48:40.553Z,47.87
2018-11-23T08:51:13.843Z,44.93
2018-11-23T08:53:48.044Z,45.53
2018-11-23T08:56:21.796Z,40.63
2018-11-23T08:58:53.495Z,39.97
2018-11-23T09:01:26.228Z,38.90
2018-11-23T09:03:59.713Z,38.80
2018-11-23T09:06:31.121Z,39.83
2018-11-23T09:09:04.194Z,32.47
2018-11-23T09:11:37.438Z,30.33
2018-11-23T09:14:11.523Z,38.07
2018-11-23T09:16:43.930Z,33.13
2018-11-23T09:19:18.069Z,34.40
2018-11-23T09:21:51.123Z,37.57
2018-11-23T09:24:23.092Z,30.97
2018-11-23T09:26:56.459Z,32.80
2018-11-23T09:29:28.258Z,32.13
2018-11-23T09:32:00.919Z,31.17
2018-11-23T09:34:33.638Z,30.97
2018-11-23T09:37:06.712Z,27.67
2018-11-23T09:39:37.933Z,34.70
2018-11-23T09:42:09.198Z,32.00
2018-11-23T09:44:40.394Z,34.00
2018-11-23T09:47:11.561Z,25.93
2018-11-23T09:49:42.782Z,25.07
2018-11-23T09:52:14.051Z,27.40
2018-11-23T09:54:45.382Z,30.33
2018-11-23T09:57:16.788Z,27.30
2018-11-23T09:59:48.137Z,29.63
2018-11-23T10:02:19.401Z,26.50
2018-11-23T10:04:50.689Z,30.83
2018-11-23T10:07:21.930Z,27.53
2018-11-23T10:09:53.512Z,27.97
2018-11-23T10:12:24.878Z,29.30
2018-11-23T10:14:56.141Z,27.63
2018-11-23T10:17:27.488Z,35.70
2018-11-23T10:19:58.715Z,29.33
2018-11-23T10:22:30.007Z,35.03
2018-11-23T10:25:01.326Z,34.87
2018-11-23T10:27:32.463Z,35.80
2018-11-23T10:30:03.765Z,36.93
2018-11-23T10:32:34.942Z,37.33
2018-11-23T10:35:06.531Z,41.40
2018-11-23T10:37:37.908Z,40.83
2018-11-23T10:40:15.279Z,41.87
2018-11-23T10:42:46.715Z,45.40
2018-11-23T10:45:19.918Z,39.73
2018-11-23T10:47:51.872Z,41.30
2018-11-23T10:50:27.253Z,44.17
2018-11-23T10:53:00.850Z,37.63
2018-11-23T10:55:33.454Z,38.10
2018-11-23T10:58:04.828Z,43.57
2018-11-23T11:01:09.755Z,43.20
2018-11-23T11:03:57.657Z,39.07
2018-11-23T11:06:45.930Z,39.47
2018-11-23T11:09:17.281Z,41.30
2018-11-23T11:11:48.552Z,39.50
2018-11-23T11:14:19.834Z,39.03
2018-11-23T11:16:51.171Z,42.60
2018-11-23T11:19:22.458Z,40.87
2018-11-23T11:21:53.816Z,39.23
2018-11-23T11:24:25.177Z,40.97
2018-11-23T11:26:56.628Z,41.00
2018-11-23T11:29:28.794Z,33.83
2018-11-23T11:32:00.067Z,39.73
2018-11-23T11:34:31.406Z,42.13
2018-11-23T11:37:02.895Z,60.47
2018-11-23T11:39:34.056Z,43.93
2018-11-23T11:42:05.428Z,38.67
2018-11-23T11:44:36.635Z,49.73
2018-11-23T11:47:08.263Z,46.43
2018-11-23T11:49:39.625Z,48.07
2018-11-23T11:52:10.935Z,42.07
2018-11-23T11:54:42.302Z,48.40
2018-11-23T11:57:13.628Z,50.53
2018-11-23T11:59:44.935Z,46.00
2018-11-23T12:02:16.199Z,56.77
2018-11-23T12:04:47.389Z,51.63
2018-11-23T12:07:18.646Z,49.97
2018-11-23T12:09:49.857Z,53.77
2018-11-23T12:12:21.095Z,50.50
2018-11-23T12:14:52.347Z,54.23
2018-11-23T12:17:23.913Z,53.60
2018-11-23T12:19:55.239Z,59.37
2018-11-23T12:22:26.525Z,56.00
2018-11-23T12:24:57.827Z,53.53
2018-11-23T12:27:29.503Z,56.20
2018-11-23T12:30:00.258Z,56.80
2018-11-23T12:32:31.525Z,54.70
2018-11-23T12:35:02.820Z,54.30
2018-11-23T12:37:34.108Z,57.13
2018-11-23T12:40:05.335Z,63.30
2018-11-23T12:42:36.702Z,52.97
2018-11-23T12:45:09.998Z,56.17
2018-11-23T12:47:41.242Z,52.17
2018-11-23T12:50:20.198Z,58.37
2018-11-23T12:52:51.421Z,51.53
2018-11-23T12:55:25.710Z,58.37
2018-11-23T12:57:56.976Z,49.53
2018-11-23T13:00:29.127Z,48.27
2018-11-23T13:03:04.721Z,60.10
2018-11-23T13:05:36.628Z,50.57
2018-11-23T13:08:08.418Z,52.43
2018-11-23T13:10:39.644Z,56.17
2018-11-23T13:13:12.188Z,59.80
2018-11-23T13:15:43.444Z,52.57
2018-11-23T13:18:14.882Z,55.43
2018-11-23T13:20:46.232Z,60.10
2018-11-23T13:23:20.508Z,52.40
2018-11-23T13:25:51.838Z,54.27
2018-11-23T13:28:23.020Z,55.20
2018-11-23T13:30:54.257Z,59.03
2018-11-23T13:33:25.407Z,53.87
2018-11-23T13:35:56.678Z,55.93
2018-11-23T13:38:27.862Z,53.67
2018-11-23T13:40:59.391Z,51.63
2018-11-23T13:43:31.703Z,54.57
2018-11-23T13:46:03.002Z,55.33
2018-11-23T13:48:34.289Z,68.23
2018-11-23T13:51:06.007Z,66.93
2018-11-23T13:53:37.180Z,64.13
2018-11-23T13:56:09.438Z,63.00
2018-11-23T13:58:40.737Z,66.70
2018-11-23T14:01:11.952Z,57.93
2018-11-23T14:03:43.229Z,69.73
2018-11-23T14:06:14.336Z,128.47
2018-11-23T14:08:45.551Z,99.50
2018-11-23T14:11:16.814Z,79.50
2018-11-23T14:13:48.067Z,78.03
2018-11-23T14:16:19.257Z,73.13
2018-11-23T14:18:50.619Z,78.93
2018-11-23T14:21:21.917Z,76.57
2018-11-23T14:23:53.313Z,81.63
2018-11-23T14:26:24.803Z,76.10
2018-11-23T14:28:56.097Z,69.03
2018-11-23T14:31:27.387Z,72.07
2018-11-23T14:33:58.688Z,79.73
2018-11-23T14:36:29.889Z,76.53
2018-11-23T14:39:01.114Z,89.57
2018-11-23T14:41:32.386Z,70.37
2018-11-23T14:44:06.904Z,77.37
2018-11-23T14:46:35.058Z,72.63
2018-11-23T14:49:08.448Z,73.47
2018-11-23T14:51:39.745Z,77.13
2018-11-23T14:54:11.035Z,83.57
2018-11-23T14:56:42.328Z,85.20
2018-11-23T14:59:13.536Z,84.20
2018-11-23T15:01:44.853Z,83.70
2018-11-23T15:04:16.153Z,91.30
2018-11-23T15:06:50.432Z,82.60
2018-11-23T15:09:21.812Z,95.87
2018-11-23T15:11:53.064Z,94.77
2018-11-23T15:14:24.257Z,110.63
2018-11-23T15:16:55.555Z,100.33
2018-11-23T15:19:26.827Z,88.53
2018-11-23T15:21:58.161Z,107.40
2018-11-23T15:24:29.504Z,118.80
2018-11-23T15:27:00.771Z,129.70
2018-11-23T15:29:31.973Z,164.60
2018-11-23T15:32:03.317Z,127.77
2018-11-23T15:34:34.521Z,138.63
2018-11-23T15:37:05.764Z,104.03
2018-11-23T15:39:37.032Z,119.77
2018-11-23T15:42:08.287Z,129.53
2018-11-23T15:44:39.517Z,215.60
2018-11-23T15:47:10.889Z,120.43
2018-11-23T15:49:42.061Z,129.73
2018-11-23T15:52:13.431Z,140.80
2018-11-23T15:54:44.657Z,202.47
2018-11-23T15:57:15.911Z,201.03
2018-11-23T15:59:47.123Z,156.77
2018-11-23T16:02:18.374Z,141.43
2018-11-23T16:04:49.676Z,87.97
2018-11-23T16:07:21.030Z,81.90
2018-11-23T16:09:52.221Z,83.83
2018-11-23T16:12:23.541Z,118.33
2018-11-23T16:14:54.820Z,110.20
2018-11-23T16:17:25.946Z,128.60
2018-11-23T16:19:57.264Z,93.43
2018-11-23T16:22:28.624Z,129.30
2018-11-23T16:24:59.943Z,87.40
2018-11-23T16:27:31.242Z,106.63
2018-11-23T16:30:02.555Z,126.50
2018-11-23T16:32:33.852Z,123.00
2018-11-23T16:35:05.143Z,86.67
2018-11-23T16:37:36.343Z,204.47
2018-11-23T16:40:09.291Z,140.10
2018-11-23T16:42:40.932Z,198.23
2018-11-23T16:45:15.360Z,155.03
2018-11-23T16:47:47.131Z,128.40
2018-11-23T16:50:18.475Z,155.43
2018-11-23T16:52:50.386Z,96.80
2018-11-23T16:55:22.899Z,186.20
2018-11-23T16:57:55.561Z,112.73
2018-11-23T17:00:37.283Z,94.90
2018-11-23T17:03:10.542Z,146.20
2018-11-23T17:05:46.404Z,79.23
2018-11-23T17:08:17.635Z,88.93
2018-11-23T17:10:48.942Z,111.47
2018-11-23T17:13:20.078Z,138.20
2018-11-23T17:15:51.341Z,156.23
2018-11-23T17:18:22.607Z,87.60
2018-11-23T17:20:53.883Z,131.53
2018-11-23T17:23:25.553Z,100.90
2018-11-23T17:25:56.783Z,81.10
2018-11-23T17:28:28.043Z,152.17
2018-11-23T17:30:59.308Z,262.43
2018-11-23T17:33:30.622Z,95.80
2018-11-23T17:36:02.236Z,109.27
2018-11-23T17:38:37.567Z,91.60
2018-11-23T17:41:04.858Z,260.97
2018-11-23T17:43:36.143Z,198.00
2018-11-23T17:46:07.320Z,337.17
2018-11-23T17:48:38.992Z,258.47
2018-11-23T17:51:10.297Z,344.30
2018-11-23T17:53:41.707Z,398.90
2018-11-23T17:56:12.986Z,342.40
2018-11-23T17:58:45.123Z,344.37
2018-11-23T18:01:19.359Z,455.70
2018-11-23T18:03:50.601Z,381.43
2018-11-23T18:09:12.210Z,126.57
2018-11-23T18:11:43.395Z,501.40
2018-11-23T18:14:14.662Z,454.67
2018-11-23T18:16:45.865Z,408.23
2018-11-23T18:19:17.175Z,249.83
2018-11-23T18:21:48.502Z,283.87
2018-11-23T18:24:19.783Z,288.60
2018-11-23T18:26:51.104Z,131.30
2018-11-23T18:29:22.320Z,52.23
2018-11-23T18:31:53.615Z,271.50
2018-11-23T18:34:24.959Z,492.13
2018-11-23T18:36:56.263Z,414.03
2018-11-23T18:39:27.584Z,398.60
2018-11-23T18:41:58.842Z,147.97
2018-11-23T18:44:30.109Z,187.50
2018-11-23T18:47:01.302Z,102.93
2018-11-23T18:49:32.581Z,233.77
2018-11-23T18:52:03.937Z,252.73
2018-11-23T18:54:35.076Z,354.97
2018-11-23T18:57:06.727Z,427.50
2018-11-23T18:59:37.968Z,324.07
2018-11-23T19:02:09.213Z,223.23
2018-11-23T19:07:56.272Z,224.60
2018-11-23T19:10:26.968Z,187.60
2018-11-23T19:12:57.659Z,108.83
2018-11-23T19:15:28.271Z,83.43
2018-11-23T19:17:58.746Z,81.43
2018-11-23T19:20:29.413Z,47.33
2018-11-23T19:23:00.042Z,88.53
2018-11-23T19:25:30.651Z,149.77
2018-11-23T19:28:01.183Z,144.23
2018-11-23T19:30:32.114Z,120.13
2018-11-23T19:33:02.731Z,294.27
2018-11-23T19:35:33.304Z,151.33
2018-11-23T19:38:03.875Z,51.00
2018-11-23T19:40:34.356Z,119.47
2018-11-23T19:43:04.943Z,210.10
2018-11-23T19:45:35.776Z,65.13
2018-11-23T19:48:06.464Z,234.97
2018-11-23T19:50:37.036Z,198.80
2018-11-23T19:53:07.656Z,178.50
2018-11-23T19:55:38.183Z,92.53
2018-11-23T19:58:08.779Z,91.97
2018-11-23T20:00:39.318Z,128.07
2018-11-23T20:03:09.942Z,120.27
2018-11-23T20:05:42.764Z,102.77
2018-11-23T20:08:13.393Z,102.20
2018-11-23T20:10:44.051Z,134.53
2018-11-23T20:13:14.624Z,70.97
2018-11-23T20:15:45.882Z,126.93
2018-11-23T20:18:16.456Z,63.00
2018-11-23T20:20:47.034Z,90.90
2018-11-23T20:23:17.603Z,167.63
2018-11-23T20:25:48.203Z,94.67
2018-11-23T20:28:18.724Z,155.93
2018-11-23T20:30:49.348Z,84.43
2018-11-23T20:33:19.975Z,53.03
2018-11-23T20:35:50.992Z,93.60
2018-11-23T20:38:21.359Z,122.97
2018-11-23T20:40:51.917Z,62.07
2018-11-23T20:43:22.500Z,132.03
2018-11-23T20:45:53.306Z,127.20
2018-11-23T20:48:24.795Z,59.37
2018-11-23T20:50:55.434Z,56.87
2018-11-23T20:53:25.936Z,45.97
2018-11-23T20:55:56.513Z,49.17
2018-11-23T20:58:27.080Z,41.17
2018-11-23T21:00:57.731Z,77.60
2018-11-23T21:03:29.338Z,118.50
2018-11-23T21:05:59.982Z,39.67
2018-11-23T21:08:30.555Z,67.37
2018-11-23T21:11:01.082Z,48.47
2018-11-23T21:13:31.657Z,84.60
2018-11-23T21:16:02.116Z,44.43
2018-11-23T21:18:32.596Z,51.27
2018-11-23T21:21:03.040Z,67.70
2018-11-23T21:23:33.604Z,78.67
2018-11-23T21:26:04.574Z,71.53
2018-11-23T21:28:35.178Z,64.27
2018-11-23T21:31:05.744Z,62.80
2018-11-23T21:33:36.284Z,59.67
2018-11-23T21:36:06.953Z,58.00
2018-11-23T21:38:37.551Z,56.53
2018-11-23T21:41:08.197Z,53.63
2018-11-23T21:43:38.808Z,58.90
2018-11-23T21:46:09.644Z,62.00
2018-11-23T21:48:40.197Z,53.63
2018-11-23T21:51:10.726Z,63.77
2018-11-23T21:53:41.387Z,64.70
2018-11-23T21:56:11.937Z,55.27
2018-11-23T21:58:42.798Z,70.70
2018-11-23T22:01:13.363Z,59.53
2018-11-23T22:03:43.940Z,55.60
2018-11-23T22:06:15.558Z,59.63
2018-11-23T22:08:46.275Z,63.47
2018-11-23T22:11:16.843Z,67.70
2018-11-23T22:13:47.503Z,67.93
2018-11-23T22:16:17.989Z,66.20
2018-11-23T22:18:48.547Z,53.40
2018-11-23T22:21:19.064Z,64.10
2018-11-23T22:23:49.711Z,56.97
2018-11-23T22:26:20.572Z,78.60
2018-11-23T22:28:51.093Z,65.40
2018-11-23T22:31:21.603Z,74.40
2018-11-23T22:33:52.190Z,62.57
2018-11-23T22:36:22.714Z,62.87
2018-11-23T22:38:53.244Z,61.10
2018-11-23T22:41:23.712Z,61.77
2018-11-23T22:43:54.229Z,61.60
2018-11-23T22:46:25.100Z,66.90
2018-11-23T22:48:56.023Z,72.17
2018-11-23T22:51:26.587Z,71.27
2018-11-23T22:53:57.155Z,58.53
2018-11-23T22:56:27.726Z,50.53
2018-11-23T22:58:58.300Z,54.50
2018-11-23T23:01:29.006Z,53.50
2018-11-23T23:03:59.524Z,49.10
2018-11-23T23:06:30.268Z,54.53
2018-11-23T23:09:00.878Z,60.07
2018-11-23T23:11:31.468Z,59.60
2018-11-23T23:14:02.806Z,57.97
2018-11-23T23:16:33.934Z,66.47
2018-11-23T23:19:04.545Z,67.23
2018-11-23T23:21:35.187Z,71.33
2018-11-23T23:24:11.625Z,66.00
2018-11-23T23:26:36.592Z,51.47
2018-11-23T23:29:07.284Z,53.67
2018-11-23T23:31:37.878Z,51.73
2018-11-23T23:34:08.374Z,51.37
2018-11-23T23:36:38.935Z,53.10
2018-11-23T23:39:09.931Z,50.40
2018-11-23T23:41:41.080Z,67.00
2018-11-23T23:44:11.653Z,52.47
2018-11-23T23:46:44.267Z,59.87
2018-11-23T23:49:14.862Z,61.33
2018-11-23T23:51:45.439Z,71.00
2018-11-23T23:54:16.008Z,78.97
2018-11-23T23:56:46.624Z,61.60
2018-11-23T23:59:17.307Z,66.10
